RJTS(METAR)
04/28 17:00
METAR RJTS 280800Z 02007KT 9999 FEW050 SCT100 17/M01 Q1004 RMK
1CU050 3AC100 A2966=
戻る
トップページへ戻る
IMOC Co,.Ltd.